Time;durP1;ratioP1;P1;durP2;ratioP2;P2;SDS_P1;SDS_P2;PMS_P1;PMS_P2;Temp;Humidity;BMP_temperature;BMP_pressure;BME280_temperature;BME280_humidity;BME280_pressure;Samples;Min_cycle;Max_cycle;Signal;HPM_P1;HPM_P2
2023/09/19 00:01:34;;;;;;;12.65;7.28;;;;;;;;;;6267065;28;20056;-72
2023/09/19 00:04:39;;;;;;;13.07;7.60;;;;;;;;;;6267796;28;20045;-73
2023/09/19 00:07:41;;;;;;;11.02;6.97;;;;;;;;;;6274884;28;20342;-75
2023/09/19 00:10:43;;;;;;;11.27;6.85;;;;;;;;;;6277873;28;20053;-76
2023/09/19 00:13:49;;;;;;;10.05;6.80;;;;;;;;;;6275968;28;20091;-73
2023/09/19 00:16:51;;;;;;;13.68;7.15;;;;;;;;;;6269580;28;20053;-74
2023/09/19 00:19:53;;;;;;;9.70;6.70;;;;;;;;;;6274089;28;20178;-73
2023/09/19 00:22:54;;;;;;;11.45;7.32;;;;;;;;;;6275763;28;20053;-73
2023/09/19 00:26:00;;;;;;;13.60;7.88;;;;;;;;;;6277570;28;20057;-71
2023/09/19 00:29:08;;;;;;;12.80;6.85;;;;;;;;;;6260463;28;20057;-75
2023/09/19 00:32:10;;;;;;;11.57;6.97;;;;;;;;;;6270482;28;20061;-74
2023/09/19 00:35:11;;;;;;;12.90;7.13;;;;;;;;;;6253415;28;20046;-76
2023/09/19 00:38:15;;;;;;;9.57;6.72;;;;;;;;;;6268201;28;20079;-75
2023/09/19 00:41:17;;;;;;;11.77;7.15;;;;;;;;;;6247264;28;20313;-74
2023/09/19 00:44:22;;;;;;;16.58;8.98;;;;;;;;;;6251745;28;20064;-76
2023/09/19 00:47:25;;;;;;;19.27;8.45;;;;;;;;;;6265078;28;20128;-72
2023/09/19 00:50:28;;;;;;;16.15;9.00;;;;;;;;;;6275364;28;21104;-73
2023/09/19 00:53:33;;;;;;;14.52;9.30;;;;;;;;;;6263448;28;20082;-75
2023/09/19 00:56:37;;;;;;;16.75;9.85;;;;;;;;;;6263226;28;20057;-77
2023/09/19 00:59:41;;;;;;;16.33;9.63;;;;;;;;;;6272571;28;20068;-72
2023/09/19 01:02:43;;;;;;;15.95;9.57;;;;;;;;;;6262768;28;20086;-74
2023/09/19 01:05:45;;;;;;;17.70;10.30;;;;;;;;;;6240910;28;20112;-76
2023/09/19 01:08:47;;;;;;;16.88;10.70;;;;;;;;;;6252981;28;20045;-77
2023/09/19 01:11:50;;;;;;;17.77;10.60;;;;;;;;;;6242157;28;20057;-78
2023/09/19 01:14:57;;;;;;;;;;;;;;;;;;6251351;28;20083;-76
2023/09/19 01:18:04;;;;;;;19.40;10.65;;;;;;;;;;6250534;28;20003;-74
2023/09/19 01:21:09;;;;;;;17.08;10.57;;;;;;;;;;6252120;28;20042;-75
2023/09/19 01:24:26;;;;;;;13.80;9.40;;;;;;;;;;6252769;28;20391;-74
2023/09/19 01:27:47;;;;;;;15.18;10.02;;;;;;;;;;6263899;28;20048;-75
2023/09/19 01:30:54;;;;;;;15.75;8.68;;;;;;;;;;6265594;28;20052;-73
2023/09/19 01:34:00;;;;;;;13.15;8.38;;;;;;;;;;6273058;28;20086;-77
2023/09/19 01:37:02;;;;;;;13.30;7.63;;;;;;;;;;6277518;28;20064;-73
2023/09/19 01:40:16;;;;;;;13.77;6.90;;;;;;;;;;6279593;28;20072;-74
2023/09/19 01:43:23;;;;;;;10.88;6.88;;;;;;;;;;6268442;28;20105;-75
2023/09/19 01:46:33;;;;;;;12.18;5.97;;;;;;;;;;6254450;28;20056;-76
2023/09/19 01:49:39;;;;;;;8.77;5.97;;;;;;;;;;6253731;28;20096;-76
2023/09/19 01:52:47;;;;;;;9.60;5.80;;;;;;;;;;6255696;28;20046;-74
2023/09/19 01:55:51;;;;;;;8.05;5.50;;;;;;;;;;6255277;28;20310;-73
2023/09/19 01:58:54;;;;;;;;;;;;;;;;;;6272559;28;20191;-74
2023/09/19 02:01:59;;;;;;;6.75;4.13;;;;;;;;;;6276341;28;19977;-73
2023/09/19 02:05:00;;;;;;;7.00;3.85;;;;;;;;;;6276570;28;20049;-74
2023/09/19 02:08:02;;;;;;;6.40;3.83;;;;;;;;;;6279737;28;20063;-73
2023/09/19 02:11:04;;;;;;;6.55;4.28;;;;;;;;;;6280291;28;20040;-75
2023/09/19 02:14:08;;;;;;;9.05;3.70;;;;;;;;;;6278598;28;20087;-76
2023/09/19 02:17:12;;;;;;;7.47;4.25;;;;;;;;;;6280637;28;20318;-75
2023/09/19 02:20:15;;;;;;;6.95;4.22;;;;;;;;;;6274470;28;20237;-78
2023/09/19 02:23:16;;;;;;;9.00;4.45;;;;;;;;;;6281586;28;20045;-76
2023/09/19 02:26:19;;;;;;;6.45;4.20;;;;;;;;;;6274315;28;20068;-77
2023/09/19 02:29:22;;;;;;;10.07;4.28;;;;;;;;;;6279763;28;20059;-75
2023/09/19 02:32:25;;;;;;;7.32;3.90;;;;;;;;;;6249766;28;20060;-76
2023/09/19 02:35:27;;;;;;;8.23;4.20;;;;;;;;;;6265698;28;20264;-73
2023/09/19 02:38:29;;;;;;;8.15;3.85;;;;;;;;;;6270582;28;20225;-75
2023/09/19 02:41:31;;;;;;;11.27;4.20;;;;;;;;;;6279432;28;20072;-75
2023/09/19 02:44:33;;;;;;;8.65;4.60;;;;;;;;;;6279034;28;20345;-75
2023/09/19 02:47:36;;;;;;;6.72;4.32;;;;;;;;;;6278337;28;20096;-75
2023/09/19 02:50:39;;;;;;;9.18;5.18;;;;;;;;;;6279718;28;20045;-74
2023/09/19 02:53:42;;;;;;;9.48;4.45;;;;;;;;;;6278118;28;20045;-74
2023/09/19 02:56:44;;;;;;;6.57;4.30;;;;;;;;;;6273825;28;20265;-73
2023/09/19 02:59:45;;;;;;;8.98;4.70;;;;;;;;;;6279031;28;20249;-76
2023/09/19 03:02:48;;;;;;;7.28;4.50;;;;;;;;;;6275227;28;20095;-73
2023/09/19 03:05:51;;;;;;;5.75;4.32;;;;;;;;;;6274360;28;20049;-74
2023/09/19 03:08:53;;;;;;;8.02;4.53;;;;;;;;;;6280883;28;20052;-73
2023/09/19 03:11:55;;;;;;;6.75;4.55;;;;;;;;;;6274642;28;20272;-73
2023/09/19 03:14:56;;;;;;;9.90;5.30;;;;;;;;;;6276279;28;20084;-74
2023/09/19 03:17:59;;;;;;;7.47;4.90;;;;;;;;;;6257991;28;20069;-74
2023/09/19 03:21:01;;;;;;;7.10;4.13;;;;;;;;;;6273221;28;20095;-77
2023/09/19 03:24:03;;;;;;;8.18;4.28;;;;;;;;;;6276938;28;20118;-73
2023/09/19 03:27:05;;;;;;;9.82;5.22;;;;;;;;;;6272497;28;20402;-74
2023/09/19 03:30:08;;;;;;;6.80;4.40;;;;;;;;;;6275487;28;20052;-74
2023/09/19 03:33:12;;;;;;;6.45;4.13;;;;;;;;;;6277083;28;20049;-76
2023/09/19 03:36:14;;;;;;;7.75;4.28;;;;;;;;;;6277471;28;20344;-76
2023/09/19 03:39:16;;;;;;;8.20;4.30;;;;;;;;;;6275654;28;20241;-74
2023/09/19 03:42:17;;;;;;;7.22;4.30;;;;;;;;;;6276223;28;20052;-74
2023/09/19 03:45:19;;;;;;;9.20;4.47;;;;;;;;;;6277401;28;20057;-80
2023/09/19 03:48:22;;;;;;;9.32;4.78;;;;;;;;;;6275577;28;20064;-76
2023/09/19 03:51:24;;;;;;;8.65;4.35;;;;;;;;;;6278168;28;20302;-73
2023/09/19 03:54:26;;;;;;;6.65;4.60;;;;;;;;;;6274685;28;20060;-74
2023/09/19 03:57:27;;;;;;;7.97;4.25;;;;;;;;;;6275378;28;20060;-73
2023/09/19 04:00:29;;;;;;;8.60;4.40;;;;;;;;;;6275812;28;20076;-76
2023/09/19 04:03:45;;;;;;;6.60;3.95;;;;;;;;;;6262533;28;20076;-76
2023/09/19 04:06:47;;;;;;;6.57;4.35;;;;;;;;;;6261933;28;20048;-76
2023/09/19 04:09:49;;;;;;;9.52;4.72;;;;;;;;;;6275891;28;20272;-74
2023/09/19 04:12:54;;;;;;;7.28;4.20;;;;;;;;;;6278378;28;20075;-75
2023/09/19 04:15:56;;;;;;;8.07;4.30;;;;;;;;;;6277605;28;20128;-75
2023/09/19 04:18:59;;;;;;;9.50;4.47;;;;;;;;;;6276150;28;20052;-74
2023/09/19 04:22:01;;;;;;;7.05;5.10;;;;;;;;;;6274298;28;20049;-76
2023/09/19 04:25:03;;;;;;;6.80;4.43;;;;;;;;;;6276231;28;20083;-73
2023/09/19 04:28:06;;;;;;;8.60;4.80;;;;;;;;;;6275390;28;20051;-74
2023/09/19 04:31:10;;;;;;;10.68;5.20;;;;;;;;;;6265158;28;20057;-75
2023/09/19 04:34:14;;;;;;;10.55;5.90;;;;;;;;;;6263015;28;20053;-75
2023/09/19 04:37:16;;;;;;;8.43;6.13;;;;;;;;;;6254576;28;20056;-74
2023/09/19 04:40:19;;;;;;;11.32;6.25;;;;;;;;;;6275563;28;20233;-74
2023/09/19 04:43:21;;;;;;;7.43;5.07;;;;;;;;;;6267003;28;20044;-73
2023/09/19 04:46:22;;;;;;;9.45;5.88;;;;;;;;;;6266444;28;20055;-74
2023/09/19 04:49:25;;;;;;;11.52;5.88;;;;;;;;;;6255190;28;20086;-74
2023/09/19 04:52:27;;;;;;;9.73;6.22;;;;;;;;;;6239712;28;20107;-77
2023/09/19 04:55:30;;;;;;;11.98;6.10;;;;;;;;;;6251467;28;20069;-83
2023/09/19 04:58:32;;;;;;;11.52;5.43;;;;;;;;;;6246697;28;20057;-77
2023/09/19 05:01:33;;;;;;;11.00;5.93;;;;;;;;;;6251185;28;20252;-77
2023/09/19 05:04:37;;;;;;;14.13;5.40;;;;;;;;;;6251995;28;20056;-77
2023/09/19 05:07:38;;;;;;;11.27;6.18;;;;;;;;;;6254776;28;20064;-75
2023/09/19 05:10:40;;;;;;;11.43;5.85;;;;;;;;;;6248764;28;20045;-76
2023/09/19 05:13:43;;;;;;;9.43;5.88;;;;;;;;;;6258398;28;20381;-76
2023/09/19 05:16:44;;;;;;;9.38;5.95;;;;;;;;;;6273761;28;20040;-76
2023/09/19 05:19:48;;;;;;;11.00;6.32;;;;;;;;;;6270650;28;20057;-77
2023/09/19 05:22:50;;;;;;;12.35;7.35;;;;;;;;;;6278975;28;20051;-77
2023/09/19 05:25:52;;;;;;;13.77;7.75;;;;;;;;;;6276585;28;20051;-80
2023/09/19 05:28:53;;;;;;;13.43;9.00;;;;;;;;;;6280897;28;20056;-77
2023/09/19 05:31:55;;;;;;;14.88;9.32;;;;;;;;;;6278101;28;20056;-78
2023/09/19 05:34:58;;;;;;;14.35;9.35;;;;;;;;;;6278075;28;20151;-79
2023/09/19 05:38:01;;;;;;;14.13;8.63;;;;;;;;;;6278652;28;20044;-78
2023/09/19 05:41:03;;;;;;;15.38;8.70;;;;;;;;;;6278898;28;20112;-77
2023/09/19 05:44:06;;;;;;;13.52;8.07;;;;;;;;;;6280764;28;20045;-78
2023/09/19 05:47:09;;;;;;;13.77;9.07;;;;;;;;;;6276232;28;20724;-79
2023/09/19 05:50:12;;;;;;;14.65;8.32;;;;;;;;;;6276661;28;20285;-76
2023/09/19 05:53:14;;;;;;;13.77;7.80;;;;;;;;;;6279210;28;20085;-77
2023/09/19 05:56:18;;;;;;;12.45;7.38;;;;;;;;;;6278196;28;20048;-79
2023/09/19 05:59:20;;;;;;;11.75;6.80;;;;;;;;;;6260773;28;20280;-78
2023/09/19 06:02:22;;;;;;;11.18;6.60;;;;;;;;;;6276893;28;20045;-78
2023/09/19 06:05:26;;;;;;;15.93;6.75;;;;;;;;;;6270440;28;20057;-78
2023/09/19 06:08:28;;;;;;;10.00;6.07;;;;;;;;;;6278772;28;20049;-78
2023/09/19 06:11:32;;;;;;;11.55;5.72;;;;;;;;;;6277090;28;20122;-78
2023/09/19 06:14:34;;;;;;;15.10;6.00;;;;;;;;;;6278040;28;20045;-78
2023/09/19 06:17:37;;;;;;;10.68;5.47;;;;;;;;;;6277311;28;20045;-79
2023/09/19 06:20:44;;;;;;;8.30;4.78;;;;;;;;;;6277465;28;20436;-79
2023/09/19 06:23:45;;;;;;;9.77;5.55;;;;;;;;;;6277260;28;20285;-77
2023/09/19 06:26:47;;;;;;;11.60;6.07;;;;;;;;;;6277874;28;20053;-78
2023/09/19 06:29:49;;;;;;;10.98;6.22;;;;;;;;;;6277932;28;20061;-77
2023/09/19 06:32:51;;;;;;;14.48;7.43;;;;;;;;;;6277441;28;20040;-80
2023/09/19 06:35:59;;;;;;;11.57;7.32;;;;;;;;;;6278184;28;20125;-78
2023/09/19 06:39:00;;;;;;;11.65;7.70;;;;;;;;;;6276299;28;20049;-77
2023/09/19 06:42:02;;;;;;;12.23;7.40;;;;;;;;;;6265702;28;20052;-79
2023/09/19 06:45:06;;;;;;;11.00;6.88;;;;;;;;;;6277138;28;20068;-79
2023/09/19 06:48:09;;;;;;;10.10;5.93;;;;;;;;;;6278772;28;20237;-78
2023/09/19 06:51:15;;;;;;;11.70;7.10;;;;;;;;;;6277035;28;20076;-80
2023/09/19 06:54:17;;;;;;;9.63;6.88;;;;;;;;;;6278298;28;20335;-79
2023/09/19 06:57:19;;;;;;;11.90;7.18;;;;;;;;;;6278488;28;20103;-80
2023/09/19 07:00:23;;;;;;;13.20;8.07;;;;;;;;;;6276081;28;20135;-78
2023/09/19 07:03:26;;;;;;;;;;;;;;;;;;6272454;28;20249;-77
2023/09/19 07:06:29;;;;;;;10.20;7.15;;;;;;;;;;6276819;28;20241;-77
2023/09/19 07:09:31;;;;;;;10.20;6.95;;;;;;;;;;6277732;28;20056;-78
2023/09/19 07:12:33;;;;;;;12.48;7.93;;;;;;;;;;6277339;28;20057;-77
2023/09/19 07:15:38;;;;;;;9.88;7.07;;;;;;;;;;6265879;28;20049;-79
2023/09/19 07:18:40;;;;;;;11.07;7.65;;;;;;;;;;6275441;28;20331;-79
2023/09/19 07:21:43;;;;;;;8.98;7.03;;;;;;;;;;6274520;28;20064;-77
2023/09/19 07:24:45;;;;;;;10.52;6.72;;;;;;;;;;6276481;28;20053;-77
2023/09/19 07:27:47;;;;;;;10.98;7.05;;;;;;;;;;6274266;28;20112;-77
2023/09/19 07:30:48;;;;;;;9.23;7.85;;;;;;;;;;6270074;28;20045;-77
2023/09/19 07:33:50;;;;;;;12.18;8.27;;;;;;;;;;6262301;28;20052;-76
2023/09/19 07:36:53;;;;;;;11.20;7.10;;;;;;;;;;6275147;28;20049;-76
2023/09/19 07:39:55;;;;;;;11.30;8.27;;;;;;;;;;6277186;28;20052;-76
2023/09/19 07:43:01;;;;;;;10.82;8.65;;;;;;;;;;6274046;28;20059;-77
2023/09/19 07:46:07;;;;;;;12.95;8.60;;;;;;;;;;6271851;28;20059;-77
2023/09/19 07:49:10;;;;;;;11.48;8.20;;;;;;;;;;6270370;28;20121;-79
2023/09/19 07:52:13;;;;;;;10.02;8.45;;;;;;;;;;6264564;28;20064;-78
2023/09/19 07:55:17;;;;;;;13.90;8.40;;;;;;;;;;6263684;28;20057;-77
2023/09/19 07:58:18;;;;;;;10.05;7.82;;;;;;;;;;6268103;28;20049;-77
2023/09/19 08:01:23;;;;;;;13.95;7.70;;;;;;;;;;6267885;28;20060;-77
2023/09/19 08:04:25;;;;;;;16.45;8.10;;;;;;;;;;6266716;28;20049;-77
2023/09/19 08:07:30;;;;;;;11.15;7.70;;;;;;;;;;6275803;28;20068;-76
2023/09/19 08:10:35;;;;;;;9.43;7.40;;;;;;;;;;6276784;28;20153;-77
2023/09/19 08:13:36;;;;;;;11.48;8.13;;;;;;;;;;6275976;28;20049;-77
2023/09/19 08:16:38;;;;;;;12.13;7.88;;;;;;;;;;6275767;28;20398;-78
2023/09/19 08:19:41;;;;;;;16.15;8.93;;;;;;;;;;6266549;28;21043;-77
2023/09/19 08:22:49;;;;;;;10.90;8.32;;;;;;;;;;6268627;28;20102;-77
2023/09/19 08:25:51;;;;;;;13.70;8.60;;;;;;;;;;6275092;28;20253;-79
2023/09/19 08:28:54;;;;;;;9.80;7.90;;;;;;;;;;6267210;28;20062;-77
2023/09/19 08:31:56;;;;;;;11.88;9.07;;;;;;;;;;6251821;28;20068;-75
2023/09/19 08:34:57;;;;;;;13.13;8.23;;;;;;;;;;6247166;28;20053;-78
2023/09/19 08:38:03;;;;;;;9.60;7.47;;;;;;;;;;6243977;28;20061;-78
2023/09/19 08:41:07;;;;;;;12.07;8.15;;;;;;;;;;6247481;28;21307;-78
2023/09/19 08:44:10;;;;;;;10.93;8.32;;;;;;;;;;6266541;28;20063;-76
2023/09/19 08:47:13;;;;;;;;;;;;;;;;;;6255068;28;20108;-75
2023/09/19 08:50:20;;;;;;;10.52;7.57;;;;;;;;;;6239864;28;19988;-77
2023/09/19 08:53:29;;;;;;;11.75;6.13;;;;;;;;;;6250414;28;20349;-77
2023/09/19 08:56:31;;;;;;;9.10;4.70;;;;;;;;;;6254002;28;20053;-77
2023/09/19 08:59:35;;;;;;;8.25;4.97;;;;;;;;;;6251773;28;20053;-77
2023/09/19 09:02:40;;;;;;;6.65;4.20;;;;;;;;;;6251778;28;20080;-77
2023/09/19 09:05:43;;;;;;;9.45;4.68;;;;;;;;;;6268978;28;20056;-77
2023/09/19 09:08:47;;;;;;;7.95;4.50;;;;;;;;;;6267899;28;20063;-76
2023/09/19 09:11:52;;;;;;;9.70;5.00;;;;;;;;;;6251640;28;20049;-76
2023/09/19 09:14:54;;;;;;;8.40;4.63;;;;;;;;;;6252689;28;20058;-75
2023/09/19 09:17:57;;;;;;;9.02;5.07;;;;;;;;;;6250520;28;20071;-76
2023/09/19 09:20:58;;;;;;;11.95;5.40;;;;;;;;;;6240802;28;20049;-76
2023/09/19 09:24:29;;;;;;;8.02;4.55;;;;;;;;;;6247566;28;20057;-76
2023/09/19 09:27:31;;;;;;;9.00;7.03;;;;;;;;;;6252763;28;20061;-76
2023/09/19 09:30:37;;;;;;;13.27;7.28;;;;;;;;;;6250633;28;20310;-76
2023/09/19 09:33:39;;;;;;;15.40;8.88;;;;;;;;;;6252756;28;20359;-76
2023/09/19 09:36:41;;;;;;;12.02;7.25;;;;;;;;;;6266200;28;20047;-76
2023/09/19 09:39:51;;;;;;;9.73;6.40;;;;;;;;;;6251831;28;20234;-76
2023/09/19 09:42:58;;;;;;;9.77;6.07;;;;;;;;;;6260245;28;20138;-76
2023/09/19 09:46:58;;;;;;;7.28;5.25;;;;;;;;;;6273518;28;20059;-76
2023/09/19 09:49:40;;;;;;;7.20;5.18;;;;;;;;;;6275054;28;20524;-76
2023/09/19 09:52:48;;;;;;;9.35;6.18;;;;;;;;;;6278632;28;20520;-75
2023/09/19 09:56:03;;;;;;;8.63;5.30;;;;;;;;;;6280050;28;20063;-76
2023/09/19 09:59:05;;;;;;;12.35;6.50;;;;;;;;;;6279084;28;20045;-76
2023/09/19 10:02:06;;;;;;;9.88;6.07;;;;;;;;;;6279755;28;20103;-76
2023/09/19 10:05:20;;;;;;;8.03;5.90;;;;;;;;;;6279370;28;20154;-76
2023/09/19 10:08:22;;;;;;;8.80;5.90;;;;;;;;;;6278802;28;20116;-77
2023/09/19 10:11:30;;;;;;;12.63;6.63;;;;;;;;;;6270507;28;20045;-76
2023/09/19 10:14:35;;;;;;;10.18;6.05;;;;;;;;;;6277324;28;20151;-76
2023/09/19 10:17:37;;;;;;;9.52;4.65;;;;;;;;;;6279269;28;20056;-76
2023/09/19 10:20:41;;;;;;;10.35;5.28;;;;;;;;;;6265761;28;20546;-76
2023/09/19 10:23:45;;;;;;;7.38;4.50;;;;;;;;;;6256700;28;20079;-76
2023/09/19 10:26:50;;;;;;;7.45;4.70;;;;;;;;;;6258047;28;20102;-76
2023/09/19 10:29:53;;;;;;;12.95;5.10;;;;;;;;;;6269347;28;20053;-76
2023/09/19 10:33:00;;;;;;;9.98;5.43;;;;;;;;;;6269899;28;20060;-72
2023/09/19 10:36:05;;;;;;;10.35;6.40;;;;;;;;;;6278060;28;20045;-75
2023/09/19 10:39:08;;;;;;;11.27;5.72;;;;;;;;;;6277460;28;20064;-74
2023/09/19 10:42:17;;;;;;;11.75;6.10;;;;;;;;;;6280607;28;20103;-75
2023/09/19 10:45:20;;;;;;;7.50;6.13;;;;;;;;;;6278984;28;20322;-75
2023/09/19 10:48:25;;;;;;;12.57;6.15;;;;;;;;;;6268651;28;20045;-75
2023/09/19 10:51:31;;;;;;;9.18;3.80;;;;;;;;;;6277680;28;20049;-75
2023/09/19 10:54:36;;;;;;;8.35;4.00;;;;;;;;;;6272743;28;20219;-75
2023/09/19 10:57:40;;;;;;;8.02;4.60;;;;;;;;;;6273320;28;20098;-74
2023/09/19 11:00:53;;;;;;;6.55;4.32;;;;;;;;;;6276100;28;20045;-75
2023/09/19 11:04:28;;;;;;;7.25;4.00;;;;;;;;;;6276228;28;20191;-75
2023/09/19 11:07:31;;;;;;;7.53;4.00;;;;;;;;;;6253869;28;20091;-75
2023/09/19 11:10:46;;;;;;;6.43;3.33;;;;;;;;;;6258250;28;20107;-75
2023/09/19 11:14:16;;;;;;;6.85;3.50;;;;;;;;;;6263364;28;20215;-74
2023/09/19 11:17:42;;;;;;;7.28;3.38;;;;;;;;;;6274299;28;20308;-74
2023/09/19 11:20:51;;;;;;;8.30;3.92;;;;;;;;;;6274795;28;21738;-76
2023/09/19 11:24:30;;;;;;;24.42;17.63;;;;;;;;;;6268180;28;20122;-76
2023/09/19 11:27:34;;;;;;;21.15;15.00;;;;;;;;;;6277071;28;20064;-77
2023/09/19 11:30:38;;;;;;;6.03;3.78;;;;;;;;;;6276080;28;20064;-74
2023/09/19 11:33:46;;;;;;;8.15;3.47;;;;;;;;;;6253359;28;20052;-75
2023/09/19 11:36:48;;;;;;;6.78;3.65;;;;;;;;;;6269479;28;20048;-76
2023/09/19 11:40:15;;;;;;;8.07;3.08;;;;;;;;;;6274538;28;20090;-75
2023/09/19 11:43:35;;;;;;;4.10;2.33;;;;;;;;;;6273450;28;20124;-75
2023/09/19 11:46:53;;;;;;;6.68;2.80;;;;;;;;;;6247024;28;20137;-75
2023/09/19 11:49:55;;;;;;;6.22;3.13;;;;;;;;;;6253461;28;20273;-76
2023/09/19 11:52:57;;;;;;;8.75;3.35;;;;;;;;;;6239589;28;20274;-74
2023/09/19 11:56:00;;;;;;;6.95;3.28;;;;;;;;;;6254399;28;20057;-75
2023/09/19 11:59:03;;;;;;;6.28;2.40;;;;;;;;;;6242451;28;20064;-75
2023/09/19 12:02:08;;;;;;;7.50;2.90;;;;;;;;;;6253309;28;20124;-75
2023/09/19 12:05:10;;;;;;;5.07;2.90;;;;;;;;;;6236388;28;20060;-76
2023/09/19 12:08:13;;;;;;;;;;;;;;;;;;6253065;28;20099;-75
2023/09/19 12:11:16;;;;;;;4.03;2.20;;;;;;;;;;6253336;28;19948;-74
2023/09/19 12:14:24;;;;;;;5.55;3.03;;;;;;;;;;6253365;28;20057;-74
2023/09/19 12:17:37;;;;;;;6.45;3.00;;;;;;;;;;6262177;28;20352;-73
2023/09/19 12:20:46;;;;;;;4.55;2.50;;;;;;;;;;6252499;28;20045;-74
2023/09/19 12:24:01;;;;;;;7.43;2.60;;;;;;;;;;6251879;28;20364;-73
2023/09/19 12:27:07;;;;;;;6.90;2.55;;;;;;;;;;6251367;28;20049;-73
2023/09/19 12:30:13;;;;;;;7.00;3.50;;;;;;;;;;6244351;28;20060;-73
2023/09/19 12:33:21;;;;;;;5.45;2.97;;;;;;;;;;6242910;28;20053;-74
2023/09/19 12:36:28;;;;;;;7.35;3.08;;;;;;;;;;6253847;28;20334;-74
2023/09/19 12:39:31;;;;;;;5.45;3.60;;;;;;;;;;6251964;28;20060;-74
2023/09/19 12:42:35;;;;;;;11.02;6.28;;;;;;;;;;6251974;28;20049;-76
2023/09/19 12:45:38;;;;;;;8.13;3.53;;;;;;;;;;6245799;28;20054;-77
2023/09/19 12:48:44;;;;;;;5.28;3.42;;;;;;;;;;6249974;28;20055;-76
2023/09/19 12:51:46;;;;;;;6.63;3.40;;;;;;;;;;6253107;28;20368;-76
2023/09/19 12:54:51;;;;;;;7.80;3.35;;;;;;;;;;6251922;28;20045;-73
2023/09/19 12:58:15;;;;;;;5.40;2.42;;;;;;;;;;6251305;28;20080;-74
2023/09/19 13:01:17;;;;;;;6.05;3.10;;;;;;;;;;6252729;28;20115;-75
2023/09/19 13:04:25;;;;;;;;;;;;;;;;;;6249435;28;20269;-75
2023/09/19 13:07:47;;;;;;;6.88;2.67;;;;;;;;;;6252073;28;19939;-75
2023/09/19 13:11:03;;;;;;;6.82;2.85;;;;;;;;;;6244017;28;20060;-75
2023/09/19 13:14:19;;;;;;;6.20;2.85;;;;;;;;;;6250759;28;20183;-74
2023/09/19 13:17:23;;;;;;;6.97;3.30;;;;;;;;;;6248957;28;20335;-73
2023/09/19 13:20:29;;;;;;;3.83;2.42;;;;;;;;;;6267581;28;20060;-74
2023/09/19 13:23:31;;;;;;;7.97;2.20;;;;;;;;;;6243024;28;20158;-74
2023/09/19 13:26:32;;;;;;;5.65;2.20;;;;;;;;;;6253597;28;20207;-74
2023/09/19 13:29:34;;;;;;;5.68;2.60;;;;;;;;;;6248742;28;20049;-73
2023/09/19 13:32:36;;;;;;;11.65;3.38;;;;;;;;;;6260152;28;20280;-73
2023/09/19 13:35:40;;;;;;;6.70;2.75;;;;;;;;;;6248402;28;20049;-74
2023/09/19 13:38:43;;;;;;;3.67;2.47;;;;;;;;;;6279549;28;20074;-74
2023/09/19 13:41:46;;;;;;;5.60;2.25;;;;;;;;;;6276351;28;20383;-75
2023/09/19 13:44:48;;;;;;;7.53;2.40;;;;;;;;;;6278311;28;20057;-76
2023/09/19 13:47:49;;;;;;;3.20;1.98;;;;;;;;;;6279635;28;20045;-76
2023/09/19 13:50:52;;;;;;;6.55;2.63;;;;;;;;;;6278366;28;20040;-76
2023/09/19 13:53:54;;;;;;;3.38;2.10;;;;;;;;;;6280479;28;20065;-74
2023/09/19 13:56:56;;;;;;;3.72;2.20;;;;;;;;;;6277728;28;20060;-75
2023/09/19 13:59:57;;;;;;;4.13;1.80;;;;;;;;;;6279099;28;20106;-75
2023/09/19 14:03:00;;;;;;;4.00;1.85;;;;;;;;;;6262044;28;20061;-77
2023/09/19 14:06:03;;;;;;;4.35;1.90;;;;;;;;;;6256896;28;20057;-73
2023/09/19 14:09:07;;;;;;;5.22;2.50;;;;;;;;;;6272917;28;20061;-76
2023/09/19 14:12:09;;;;;;;7.32;1.90;;;;;;;;;;6276770;28;20055;-75
2023/09/19 14:15:11;;;;;;;;;;;;;;;;;;6281708;28;20052;-75
2023/09/19 14:18:13;;;;;;;8.52;2.13;;;;;;;;;;6281340;28;20109;-74
2023/09/19 14:21:16;;;;;;;3.88;1.88;;;;;;;;;;6281627;28;20045;-74
2023/09/19 14:24:18;;;;;;;4.68;1.92;;;;;;;;;;6277750;28;20048;-74
2023/09/19 14:27:19;;;;;;;;;;;;;;;;;;6280080;28;20057;-74
2023/09/19 14:30:21;;;;;;;5.60;1.97;;;;;;;;;;6279365;28;20181;-74
2023/09/19 14:33:23;;;;;;;;;;;;;;;;;;6281439;28;20053;-72
2023/09/19 14:36:26;;;;;;;5.68;2.15;;;;;;;;;;6278225;28;19970;-73
2023/09/19 14:39:28;;;;;;;7.47;1.92;;;;;;;;;;6277392;28;20052;-76
2023/09/19 14:42:30;;;;;;;;;;;;;;;;;;6281248;28;20045;-75
2023/09/19 14:45:32;;;;;;;2.90;1.52;;;;;;;;;;6278429;28;20012;-74
2023/09/19 14:48:34;;;;;;;3.83;1.95;;;;;;;;;;6277407;28;20045;-75
2023/09/19 14:51:39;;;;;;;4.90;1.77;;;;;;;;;;6274122;28;20045;-72
2023/09/19 14:54:41;;;;;;;4.43;1.73;;;;;;;;;;6277925;28;20174;-74
2023/09/19 14:57:45;;;;;;;3.80;1.80;;;;;;;;;;6279713;28;20079;-73
2023/09/19 15:00:47;;;;;;;4.90;2.00;;;;;;;;;;6278500;28;20048;-74
2023/09/19 15:03:49;;;;;;;10.80;2.00;;;;;;;;;;6277161;28;20052;-73
2023/09/19 15:06:54;;;;;;;;;;;;;;;;;;6278049;28;20045;-72
2023/09/19 15:09:56;;;;;;;2.80;1.45;;;;;;;;;;6280844;28;19924;-74
2023/09/19 15:12:58;;;;;;;3.95;1.40;;;;;;;;;;6278513;28;20108;-73
2023/09/19 15:16:00;;;;;;;5.50;1.58;;;;;;;;;;6264400;28;20061;-73
2023/09/19 15:19:02;;;;;;;7.70;2.40;;;;;;;;;;6254045;28;20045;-75
2023/09/19 15:22:06;;;;;;;;;;;;;;;;;;6255837;28;20268;-76
2023/09/19 15:25:09;;;;;;;3.28;1.60;;;;;;;;;;6254087;28;19923;-74
2023/09/19 15:28:11;;;;;;;3.80;1.80;;;;;;;;;;6245165;28;20055;-75
2023/09/19 15:31:13;;;;;;;;;;;;;;;;;;6254660;28;20060;-76
2023/09/19 15:34:15;;;;;;;4.78;1.80;;;;;;;;;;6249474;28;20447;-78
2023/09/19 15:37:19;;;;;;;4.53;1.77;;;;;;;;;;6253288;28;20240;-75
2023/09/19 15:40:23;;;;;;;3.33;1.70;;;;;;;;;;6245367;28;20056;-75
2023/09/19 15:43:25;;;;;;;4.20;1.92;;;;;;;;;;6265204;28;20106;-75
2023/09/19 15:46:27;;;;;;;;;;;;;;;;;;6244082;28;20064;-77
2023/09/19 15:49:29;;;;;;;4.72;1.83;;;;;;;;;;6264025;28;20215;-77
2023/09/19 15:52:32;;;;;;;;;;;;;;;;;;6271928;28;20061;-77
2023/09/19 15:55:39;;;;;;;2.63;1.75;;;;;;;;;;6276157;28;19917;-77
2023/09/19 15:58:41;;;;;;;4.90;1.95;;;;;;;;;;6276457;28;20107;-77
2023/09/19 16:01:45;;;;;;;5.32;2.28;;;;;;;;;;6269019;28;20122;-75
2023/09/19 16:04:46;;;;;;;3.92;1.98;;;;;;;;;;6267199;28;20037;-77
2023/09/19 16:07:49;;;;;;;;;;;;;;;;;;6276743;28;20057;-77
2023/09/19 16:10:51;;;;;;;6.20;2.40;;;;;;;;;;6273580;28;19923;-77
2023/09/19 16:13:53;;;;;;;6.00;2.10;;;;;;;;;;6259665;28;20417;-76
2023/09/19 16:16:57;;;;;;;4.82;2.00;;;;;;;;;;6271292;28;20132;-75
2023/09/19 16:20:00;;;;;;;6.40;2.05;;;;;;;;;;6246400;28;20061;-76
2023/09/19 16:23:03;;;;;;;4.90;2.30;;;;;;;;;;6244791;28;20108;-76
2023/09/19 16:26:05;;;;;;;3.13;2.10;;;;;;;;;;6251617;28;20377;-78
2023/09/19 16:29:09;;;;;;;4.07;1.95;;;;;;;;;;6250941;28;20041;-76
2023/09/19 16:32:11;;;;;;;4.18;2.15;;;;;;;;;;6258389;28;21005;-76
2023/09/19 16:35:12;;;;;;;;;;;;;;;;;;6269964;28;20057;-76
2023/09/19 16:38:16;;;;;;;5.35;2.20;;;;;;;;;;6266472;28;19936;-77
2023/09/19 16:41:18;;;;;;;4.93;2.75;;;;;;;;;;6258779;28;20104;-78
2023/09/19 16:44:20;;;;;;;3.17;2.10;;;;;;;;;;6277762;28;20056;-77
2023/09/19 16:47:22;;;;;;;3.67;2.20;;;;;;;;;;6275098;28;20045;-77
2023/09/19 16:50:24;;;;;;;5.32;2.75;;;;;;;;;;6277204;28;20060;-77
2023/09/19 16:53:27;;;;;;;4.70;2.40;;;;;;;;;;6273597;28;20043;-75
2023/09/19 16:56:31;;;;;;;7.50;2.40;;;;;;;;;;6248360;28;20864;-75
2023/09/19 16:59:33;;;;;;;3.97;2.40;;;;;;;;;;6266882;28;20307;-76
2023/09/19 17:02:36;;;;;;;4.80;2.78;;;;;;;;;;6250786;28;20053;-80
2023/09/19 17:05:39;;;;;;;5.45;3.10;;;;;;;;;;6258987;28;20061;-77
2023/09/19 17:08:43;;;;;;;5.13;3.45;;;;;;;;;;6281436;28;20337;-77
2023/09/19 17:11:46;;;;;;;5.47;3.00;;;;;;;;;;6281834;28;20240;-76
2023/09/19 17:14:47;;;;;;;5.50;3.30;;;;;;;;;;6282232;28;20131;-75
2023/09/19 17:17:49;;;;;;;5.47;2.80;;;;;;;;;;6278418;28;20159;-76
2023/09/19 17:20:51;;;;;;;5.32;2.72;;;;;;;;;;6278713;28;20103;-78
2023/09/19 17:23:55;;;;;;;4.70;2.80;;;;;;;;;;6281666;28;20053;-74
2023/09/19 17:26:56;;;;;;;5.90;3.00;;;;;;;;;;6274781;28;20057;-77
2023/09/19 17:29:58;;;;;;;6.88;2.53;;;;;;;;;;6278257;28;20064;-76
2023/09/19 17:33:00;;;;;;;6.20;2.90;;;;;;;;;;6272156;28;20131;-77
2023/09/19 17:36:08;;;;;;;4.82;2.70;;;;;;;;;;6280866;28;20045;-75
2023/09/19 17:39:14;;;;;;;5.07;2.70;;;;;;;;;;6277153;28;20079;-75
2023/09/19 17:42:16;;;;;;;6.30;2.85;;;;;;;;;;6279911;28;20057;-74
2023/09/19 17:45:18;;;;;;;6.03;2.35;;;;;;;;;;6278386;28;20234;-75
2023/09/19 17:48:19;;;;;;;7.85;2.88;;;;;;;;;;6279242;28;20053;-76
2023/09/19 17:51:22;;;;;;;6.55;3.28;;;;;;;;;;6282615;28;20057;-76
2023/09/19 17:54:25;;;;;;;4.28;3.25;;;;;;;;;;6278714;28;20106;-77
2023/09/19 17:57:27;;;;;;;4.85;3.10;;;;;;;;;;6278471;28;20106;-76
2023/09/19 18:00:28;;;;;;;5.95;3.17;;;;;;;;;;6280730;28;20059;-77
2023/09/19 18:03:31;;;;;;;7.78;3.45;;;;;;;;;;6277304;28;20135;-77
2023/09/19 18:06:33;;;;;;;7.22;4.25;;;;;;;;;;6281355;28;20356;-75
2023/09/19 18:09:36;;;;;;;6.95;3.67;;;;;;;;;;6281654;28;20344;-75
2023/09/19 18:12:38;;;;;;;6.00;3.72;;;;;;;;;;6272260;28;20325;-75
2023/09/19 18:15:40;;;;;;;6.65;4.07;;;;;;;;;;6280367;28;20110;-74
2023/09/19 18:18:42;;;;;;;7.47;4.32;;;;;;;;;;6278034;28;20080;-74
2023/09/19 18:21:45;;;;;;;13.33;5.50;;;;;;;;;;6281204;28;20064;-74
2023/09/19 18:24:48;;;;;;;10.02;4.72;;;;;;;;;;6239144;28;20073;-76